createdAt,value
2023-04-02T00:00:43.305Z,981.46
2023-04-02T00:01:43.333Z,981.44
2023-04-02T00:02:43.302Z,981.37
2023-04-02T00:03:43.330Z,981.43
2023-04-02T00:04:43.277Z,981.46
2023-04-02T00:05:43.246Z,981.52
2023-04-02T00:06:43.257Z,981.52
2023-04-02T00:07:43.249Z,981.55
2023-04-02T00:08:43.230Z,981.62
2023-04-02T00:09:43.214Z,981.51
2023-04-02T00:10:43.211Z,981.58
2023-04-02T00:11:43.215Z,981.60
2023-04-02T00:12:43.173Z,981.68
2023-04-02T00:13:43.197Z,981.66
2023-04-02T00:14:43.166Z,981.80
2023-04-02T00:15:43.185Z,981.76
2023-04-02T00:16:43.195Z,981.76
2023-04-02T00:17:43.151Z,981.71
2023-04-02T00:18:43.148Z,981.76
2023-04-02T00:19:43.112Z,981.77
2023-04-02T00:20:43.129Z,981.79
2023-04-02T00:21:43.106Z,981.85
2023-04-02T00:22:43.092Z,981.77
2023-04-02T00:23:43.100Z,981.90
2023-04-02T00:24:43.081Z,981.87
2023-04-02T00:25:43.147Z,981.77
2023-04-02T00:26:43.047Z,981.88
2023-04-02T00:27:43.060Z,981.87
2023-04-02T00:28:43.026Z,981.90
2023-04-02T00:29:43.047Z,981.91
2023-04-02T00:30:43.038Z,982.01
2023-04-02T00:31:43.041Z,981.95
2023-04-02T00:32:43.010Z,981.98
2023-04-02T00:33:42.976Z,982.03
2023-04-02T00:34:42.987Z,982.09
2023-04-02T00:35:43.002Z,982.05
2023-04-02T00:36:42.930Z,982.09
2023-04-02T00:37:42.952Z,982.11
2023-04-02T00:38:42.913Z,982.12
2023-04-02T00:39:42.906Z,982.15
2023-04-02T00:40:42.889Z,982.13
2023-04-02T00:41:42.890Z,982.23
2023-04-02T00:42:42.879Z,982.18
2023-04-02T00:43:42.875Z,982.15
2023-04-02T00:44:42.883Z,982.22
2023-04-02T00:45:42.859Z,982.25
2023-04-02T00:46:42.844Z,982.21
2023-04-02T00:47:42.879Z,982.26
2023-04-02T00:48:42.841Z,982.29
2023-04-02T00:49:42.819Z,982.30
2023-04-02T00:50:42.811Z,982.30
2023-04-02T00:51:42.792Z,982.24
2023-04-02T00:52:42.805Z,982.40
2023-04-02T00:53:42.778Z,982.28
2023-04-02T00:54:42.759Z,982.32
2023-04-02T00:55:42.770Z,982.33
2023-04-02T00:56:42.752Z,982.37
2023-04-02T00:57:42.742Z,982.41
2023-04-02T00:58:42.725Z,982.41
2023-04-02T00:59:42.719Z,982.44
2023-04-02T01:00:42.723Z,982.40
2023-04-02T01:01:42.898Z,982.42
2023-04-02T01:02:42.830Z,982.31
2023-04-02T01:03:42.873Z,982.49
2023-04-02T01:04:42.653Z,982.46
2023-04-02T01:05:42.647Z,982.48
2023-04-02T01:06:42.641Z,982.46
2023-04-02T01:07:42.621Z,982.52
2023-04-02T01:08:42.629Z,982.50
2023-04-02T01:09:42.621Z,982.49
2023-04-02T01:10:42.624Z,982.53
2023-04-02T01:11:42.600Z,982.57
2023-04-02T01:12:42.568Z,982.50
2023-04-02T01:13:42.565Z,982.58
2023-04-02T01:14:42.552Z,982.53
2023-04-02T01:15:42.546Z,982.68
2023-04-02T01:16:42.563Z,982.56
2023-04-02T01:17:42.604Z,982.67
2023-04-02T01:18:42.517Z,982.67
2023-04-02T01:19:42.500Z,982.69
2023-04-02T01:20:42.504Z,982.67
2023-04-02T01:21:42.544Z,982.76
2023-04-02T01:22:42.482Z,982.79
2023-04-02T01:23:42.457Z,982.80
2023-04-02T01:24:42.455Z,982.86
2023-04-02T01:25:42.459Z,982.79
2023-04-02T01:26:42.436Z,982.85
2023-04-02T01:27:42.423Z,982.85
2023-04-02T01:28:42.395Z,982.79
2023-04-02T01:29:42.410Z,982.81
2023-04-02T01:30:42.382Z,982.96
2023-04-02T01:31:42.441Z,982.94
2023-04-02T01:32:42.393Z,982.96
2023-04-02T01:33:42.369Z,983.01
2023-04-02T01:34:42.339Z,983.07
2023-04-02T01:35:42.385Z,983.02
2023-04-02T01:36:42.336Z,983.07
2023-04-02T01:37:42.300Z,983.03
2023-04-02T01:38:43.302Z,983.05
2023-04-02T01:39:42.301Z,982.97
2023-04-02T01:40:42.278Z,983.13
2023-04-02T01:41:42.285Z,983.04
2023-04-02T01:42:42.282Z,983.11
2023-04-02T01:43:42.260Z,983.16
2023-04-02T01:44:42.250Z,983.19
2023-04-02T01:45:42.227Z,983.24
2023-04-02T01:46:42.283Z,983.25
2023-04-02T01:47:42.253Z,983.31
2023-04-02T01:48:42.189Z,983.39
2023-04-02T01:49:42.210Z,983.40
2023-04-02T01:50:42.164Z,983.37
2023-04-02T01:51:42.162Z,983.46
2023-04-02T01:52:42.162Z,983.46
2023-04-02T01:53:42.128Z,983.49
2023-04-02T01:54:42.145Z,983.57
2023-04-02T01:55:42.136Z,983.63
2023-04-02T01:56:42.103Z,983.52
2023-04-02T01:57:42.108Z,983.58
2023-04-02T01:58:42.089Z,983.64
2023-04-02T01:59:42.092Z,983.63
2023-04-02T02:00:42.093Z,983.68
2023-04-02T02:01:42.057Z,983.61
2023-04-02T02:02:42.129Z,983.76
2023-04-02T02:03:42.056Z,983.69
2023-04-02T02:04:42.017Z,983.69
2023-04-02T02:05:42.021Z,983.72
2023-04-02T02:06:41.997Z,983.70
2023-04-02T02:07:41.999Z,983.52
2023-04-02T02:08:41.989Z,983.76
2023-04-02T02:09:41.970Z,983.76
2023-04-02T02:10:41.980Z,983.81
2023-04-02T02:11:41.945Z,983.76
2023-04-02T02:12:41.949Z,983.84
2023-04-02T02:13:42.252Z,983.89
2023-04-02T02:14:41.939Z,983.89
2023-04-02T02:15:41.924Z,983.85
2023-04-02T02:16:42.094Z,983.88
2023-04-02T02:17:41.970Z,983.97
2023-04-02T02:18:41.869Z,983.87
2023-04-02T02:19:41.873Z,983.97
2023-04-02T02:20:41.867Z,984.03
2023-04-02T02:21:41.869Z,984.03
2023-04-02T02:22:41.841Z,983.99
2023-04-02T02:23:41.832Z,984.03
2023-04-02T02:24:41.849Z,984.03
2023-04-02T02:25:41.833Z,983.98
2023-04-02T02:26:41.787Z,984.09
2023-04-02T02:27:41.799Z,984.10
2023-04-02T02:28:41.788Z,984.21
2023-04-02T02:29:41.783Z,984.12
2023-04-02T02:30:41.757Z,984.11
2023-04-02T02:31:41.802Z,984.19
2023-04-02T02:32:41.767Z,984.25
2023-04-02T02:33:41.742Z,984.14
2023-04-02T02:34:41.715Z,984.29
2023-04-02T02:35:41.775Z,984.28
2023-04-02T02:36:41.691Z,984.33
2023-04-02T02:37:41.704Z,984.29
2023-04-02T02:38:41.673Z,984.29
2023-04-02T02:39:41.677Z,984.38
2023-04-02T02:40:41.665Z,984.43
2023-04-02T02:41:41.652Z,984.42
2023-04-02T02:42:41.637Z,984.46
2023-04-02T02:43:41.637Z,984.58
2023-04-02T02:44:41.622Z,984.51
2023-04-02T02:45:41.650Z,984.48
2023-04-02T02:46:41.594Z,984.52
2023-04-02T02:47:41.588Z,984.60
2023-04-02T02:48:41.576Z,984.58
2023-04-02T02:49:41.584Z,984.68
2023-04-02T02:50:41.563Z,984.59
2023-04-02T02:51:41.531Z,984.76
2023-04-02T02:52:41.524Z,984.73
2023-04-02T02:53:41.519Z,984.76
2023-04-02T02:54:41.534Z,984.78
2023-04-02T02:55:41.504Z,984.73
2023-04-02T02:56:41.508Z,984.86
2023-04-02T02:57:41.488Z,984.79
2023-04-02T02:58:41.475Z,984.83
2023-04-02T02:59:41.463Z,984.80
2023-04-02T03:00:41.474Z,984.94
2023-04-02T03:01:41.476Z,984.96
2023-04-02T03:02:41.574Z,984.86
2023-04-02T03:03:41.585Z,985.05
2023-04-02T03:04:41.440Z,985.08
2023-04-02T03:05:41.462Z,985.02
2023-04-02T03:06:41.392Z,984.99
2023-04-02T03:07:41.398Z,985.05
2023-04-02T03:08:41.365Z,985.08
2023-04-02T03:09:41.353Z,985.15
2023-04-02T03:10:41.344Z,985.07
2023-04-02T03:11:41.345Z,985.16
2023-04-02T03:12:41.357Z,985.04
2023-04-02T03:13:41.324Z,985.11
2023-04-02T03:14:41.303Z,985.15
2023-04-02T03:15:41.359Z,985.23
2023-04-02T03:16:41.314Z,985.22
2023-04-02T03:17:41.319Z,985.24
2023-04-02T03:18:41.276Z,985.32
2023-04-02T03:19:41.266Z,985.33
2023-04-02T03:20:41.272Z,985.32
2023-04-02T03:21:41.242Z,985.35
2023-04-02T03:22:41.224Z,985.39
2023-04-02T03:23:41.246Z,985.38
2023-04-02T03:24:41.203Z,985.34
2023-04-02T03:25:41.195Z,985.33
2023-04-02T03:26:41.177Z,985.43
2023-04-02T03:27:41.281Z,985.48
2023-04-02T03:28:41.168Z,985.53
2023-04-02T03:29:41.159Z,985.49
2023-04-02T03:31:13.065Z,985.55
2023-04-02T03:31:41.145Z,985.61
2023-04-02T03:32:41.193Z,985.56
2023-04-02T03:33:41.113Z,985.60
2023-04-02T03:34:41.099Z,985.65
2023-04-02T03:35:41.113Z,985.63
2023-04-02T03:36:41.112Z,985.74
2023-04-02T03:37:41.068Z,985.72
2023-04-02T03:38:41.077Z,985.73
2023-04-02T03:39:41.063Z,985.72
2023-04-02T03:40:41.069Z,985.80
2023-04-02T03:41:41.021Z,985.84
2023-04-02T03:42:41.027Z,985.84
2023-04-02T03:43:41.006Z,985.86
2023-04-02T03:44:40.989Z,985.84
2023-04-02T03:45:41.027Z,985.84
2023-04-02T03:46:41.025Z,985.92
2023-04-02T03:47:40.997Z,985.90
2023-04-02T03:48:40.978Z,985.94
2023-04-02T03:49:40.950Z,985.93
2023-04-02T03:50:40.938Z,985.97
2023-04-02T03:51:40.939Z,986.03
2023-04-02T03:52:40.925Z,985.98
2023-04-02T03:53:40.895Z,986.00
2023-04-02T03:54:40.921Z,986.12
2023-04-02T03:55:41.914Z,986.02
2023-04-02T03:56:40.882Z,986.07
2023-04-02T03:57:40.886Z,986.11
2023-04-02T03:58:40.870Z,986.10
2023-04-02T03:59:40.854Z,986.11
2023-04-02T04:00:40.820Z,986.13
2023-04-02T04:01:40.849Z,986.18
2023-04-02T04:02:40.856Z,986.12
2023-04-02T04:03:40.856Z,986.17
2023-04-02T04:04:40.792Z,986.22
2023-04-02T04:05:40.774Z,986.25
2023-04-02T04:06:40.775Z,986.24
2023-04-02T04:07:40.775Z,986.30
2023-04-02T04:08:40.730Z,986.33
2023-04-02T04:09:40.758Z,986.31
2023-04-02T04:10:40.725Z,986.39
2023-04-02T04:11:40.718Z,986.33
2023-04-02T04:12:40.712Z,986.39
2023-04-02T04:13:40.689Z,986.36
2023-04-02T04:14:41.360Z,986.41
2023-04-02T04:15:40.668Z,986.45
2023-04-02T04:16:40.735Z,986.46
2023-04-02T04:17:40.699Z,986.54
2023-04-02T04:18:40.666Z,986.56
2023-04-02T04:19:40.637Z,986.58
2023-04-02T04:20:40.602Z,986.48
2023-04-02T04:21:40.605Z,986.58
2023-04-02T04:22:40.620Z,986.67
2023-04-02T04:23:40.604Z,986.72
2023-04-02T04:24:40.557Z,986.70
2023-04-02T04:25:40.602Z,986.71
2023-04-02T04:26:40.550Z,986.62
2023-04-02T04:27:40.543Z,986.69
2023-04-02T04:28:40.571Z,986.69
2023-04-02T04:29:40.526Z,986.71
2023-04-02T04:30:40.499Z,986.66
2023-04-02T04:31:40.536Z,986.74
2023-04-02T04:32:40.568Z,986.76
2023-04-02T04:33:40.496Z,986.81
2023-04-02T04:34:40.464Z,986.82
2023-04-02T04:35:40.629Z,986.95
2023-04-02T04:36:40.482Z,986.92
2023-04-02T04:37:42.682Z,987.02
2023-04-02T04:38:40.416Z,987.04
2023-04-02T04:39:40.419Z,987.05
2023-04-02T04:40:40.455Z,987.05
2023-04-02T04:41:40.377Z,987.11
2023-04-02T04:42:40.408Z,987.11
2023-04-02T04:43:40.379Z,987.12
2023-04-02T04:44:40.363Z,987.09
2023-04-02T04:45:40.417Z,987.13
2023-04-02T04:46:40.373Z,987.16
2023-04-02T04:47:40.388Z,987.15
2023-04-02T04:48:40.306Z,987.16
2023-04-02T04:49:40.334Z,987.20
2023-04-02T04:50:40.317Z,987.25
2023-04-02T04:51:40.300Z,987.30
2023-04-02T04:52:40.318Z,987.20
2023-04-02T04:53:40.273Z,987.26
2023-04-02T04:54:40.247Z,987.37
2023-04-02T04:55:40.293Z,987.36
2023-04-02T04:56:40.287Z,987.35
2023-04-02T04:57:40.210Z,987.43
2023-04-02T04:58:40.255Z,987.44
2023-04-02T04:59:40.221Z,987.45
2023-04-02T05:00:41.195Z,987.51
2023-04-02T05:01:40.199Z,987.50
2023-04-02T05:02:40.214Z,987.48
2023-04-02T05:03:40.184Z,987.47
2023-04-02T05:04:40.197Z,987.59
2023-04-02T05:05:40.142Z,987.57
2023-04-02T05:06:40.148Z,987.61
2023-04-02T05:07:40.132Z,987.65
2023-04-02T05:08:40.127Z,987.68
2023-04-02T05:09:40.107Z,987.70
2023-04-02T05:10:40.110Z,987.69
2023-04-02T05:11:40.086Z,987.72
2023-04-02T05:12:40.056Z,987.66
2023-04-02T05:13:40.081Z,987.71
2023-04-02T05:14:40.066Z,987.76
2023-04-02T05:15:40.123Z,987.81
2023-04-02T05:16:40.074Z,987.81
2023-04-02T05:17:40.077Z,987.92
2023-04-02T05:18:40.009Z,987.77
2023-04-02T05:19:40.000Z,987.92
2023-04-02T05:20:40.002Z,987.93
2023-04-02T05:21:39.973Z,987.90
2023-04-02T05:22:41.388Z,987.96
2023-04-02T05:23:39.965Z,987.95
2023-04-02T05:24:39.925Z,987.99
2023-04-02T05:25:39.941Z,988.03
2023-04-02T05:26:39.951Z,988.04
2023-04-02T05:27:39.922Z,988.06
2023-04-02T05:28:39.880Z,988.07
2023-04-02T05:29:39.900Z,988.04
2023-04-02T05:30:39.864Z,988.11
2023-04-02T05:31:39.955Z,988.11
2023-04-02T05:32:39.937Z,988.16
2023-04-02T05:33:39.856Z,988.22
2023-04-02T05:34:39.839Z,988.23
2023-04-02T05:35:39.880Z,988.24
2023-04-02T05:36:39.825Z,988.27
2023-04-02T05:37:39.842Z,988.31
2023-04-02T05:38:39.789Z,988.22
2023-04-02T05:39:39.786Z,988.30
2023-04-02T05:40:39.783Z,988.28
2023-04-02T05:41:39.760Z,988.37
2023-04-02T05:42:39.743Z,988.44
2023-04-02T05:43:39.769Z,988.45
2023-04-02T05:44:39.765Z,988.46
2023-04-02T05:45:39.698Z,988.47
2023-04-02T05:46:39.760Z,988.49
2023-04-02T05:47:39.750Z,988.55
2023-04-02T05:48:39.696Z,988.53
2023-04-02T05:49:39.677Z,988.59
2023-04-02T05:50:39.698Z,988.54
2023-04-02T05:51:39.664Z,988.62
2023-04-02T05:52:39.631Z,988.67
2023-04-02T05:53:40.657Z,988.70
2023-04-02T05:54:39.615Z,988.60
2023-04-02T05:55:39.634Z,988.71
2023-04-02T05:56:39.622Z,988.66
2023-04-02T05:57:46.754Z,988.65
2023-04-02T05:59:39.583Z,988.60
2023-04-02T06:00:39.593Z,988.74
2023-04-02T06:01:39.586Z,988.75
2023-04-02T06:02:39.646Z,988.64
2023-04-02T06:03:39.605Z,988.69
2023-04-02T06:04:39.522Z,988.82
2023-04-02T06:05:39.522Z,988.85
2023-04-02T06:06:39.535Z,988.94
2023-04-02T06:07:39.504Z,988.90
2023-04-02T06:08:39.518Z,988.90
2023-04-02T06:09:39.491Z,988.96
2023-04-02T06:10:39.438Z,988.96
2023-04-02T06:11:39.447Z,989.01
2023-04-02T06:12:39.449Z,989.01
2023-04-02T06:13:39.425Z,989.01
2023-04-02T06:14:39.405Z,989.01
2023-04-02T06:15:39.407Z,989.05
2023-04-02T06:16:39.479Z,989.05
2023-04-02T06:17:39.400Z,989.05
2023-04-02T06:18:39.387Z,989.16
2023-04-02T06:19:39.363Z,989.13
2023-04-02T06:20:39.341Z,989.15
2023-04-02T06:21:39.335Z,989.22
2023-04-02T06:22:39.358Z,989.21
2023-04-02T06:23:39.311Z,989.21
2023-04-02T06:24:39.297Z,989.23
2023-04-02T06:25:39.304Z,989.33
2023-04-02T06:26:39.282Z,989.39
2023-04-02T06:27:39.266Z,989.33
2023-04-02T06:28:39.274Z,989.42
2023-04-02T06:29:39.251Z,989.49
2023-04-02T06:30:39.312Z,989.43
2023-04-02T06:31:39.251Z,989.46
2023-04-02T06:32:39.287Z,989.47
2023-04-02T06:33:39.198Z,989.46
2023-04-02T06:34:39.216Z,989.48
2023-04-02T06:35:39.288Z,989.55
2023-04-02T06:36:39.176Z,989.65
2023-04-02T06:37:39.189Z,989.61
2023-04-02T06:38:39.171Z,989.62
2023-04-02T06:39:39.146Z,989.67
2023-04-02T06:40:39.131Z,989.71
2023-04-02T06:41:39.130Z,989.77
2023-04-02T06:42:39.150Z,989.74
2023-04-02T06:43:39.111Z,989.72
2023-04-02T06:44:39.099Z,989.76
2023-04-02T06:45:39.090Z,989.78
2023-04-02T06:46:39.091Z,989.72
2023-04-02T06:47:39.161Z,989.79
2023-04-02T06:48:39.044Z,989.85
2023-04-02T06:49:39.080Z,989.82
2023-04-02T06:50:39.019Z,989.85
2023-04-02T06:51:39.037Z,989.83
2023-04-02T06:52:39.030Z,989.90
2023-04-02T06:53:39.029Z,989.86
2023-04-02T06:54:39.115Z,989.91
2023-04-02T06:55:39.243Z,989.97
2023-04-02T06:56:38.998Z,989.90
2023-04-02T06:57:39.302Z,990.01
2023-04-02T06:58:38.974Z,990.10
2023-04-02T06:59:38.943Z,990.04
2023-04-02T07:00:38.942Z,990.07
2023-04-02T07:01:38.949Z,990.07
2023-04-02T07:02:38.957Z,990.08
2023-04-02T07:03:38.903Z,990.16
2023-04-02T07:04:38.900Z,990.21
2023-04-02T07:05:41.002Z,990.27
2023-04-02T07:06:38.864Z,990.26
2023-04-02T07:07:38.876Z,990.21
2023-04-02T07:08:38.863Z,990.27
2023-04-02T07:09:38.842Z,990.35
2023-04-02T07:10:38.829Z,990.39
2023-04-02T07:11:38.823Z,990.36
2023-04-02T07:12:38.845Z,990.45
2023-04-02T07:13:38.807Z,990.42
2023-04-02T07:14:38.758Z,990.47
2023-04-02T07:15:38.798Z,990.42
2023-04-02T07:16:38.788Z,990.43
2023-04-02T07:17:38.785Z,990.52
2023-04-02T07:18:38.725Z,990.51
2023-04-02T07:19:38.736Z,990.53
2023-04-02T07:20:38.734Z,990.57
2023-04-02T07:21:38.694Z,990.53
2023-04-02T07:22:38.719Z,990.59
2023-04-02T07:23:38.695Z,990.58
2023-04-02T07:24:38.684Z,990.63
2023-04-02T07:25:38.664Z,990.57
2023-04-02T07:26:38.698Z,990.67
2023-04-02T07:27:38.651Z,990.67
2023-04-02T07:28:38.614Z,990.60
2023-04-02T07:29:39.668Z,990.61
2023-04-02T07:30:38.601Z,990.61
2023-04-02T07:31:38.629Z,990.70
2023-04-02T07:32:38.677Z,990.70
2023-04-02T07:33:40.100Z,990.68
2023-04-02T07:34:38.565Z,990.71
2023-04-02T07:35:38.709Z,990.77
2023-04-02T07:36:38.562Z,990.70
2023-04-02T07:37:38.544Z,990.75
2023-04-02T07:38:38.542Z,990.73
2023-04-02T07:39:40.238Z,990.66
2023-04-02T07:40:38.506Z,990.93
2023-04-02T07:41:38.489Z,990.81
2023-04-02T07:42:38.498Z,990.77
2023-04-02T07:43:38.488Z,990.79
2023-04-02T07:44:38.457Z,990.80
2023-04-02T07:45:38.725Z,990.88
2023-04-02T07:46:38.484Z,990.87
2023-04-02T07:47:38.469Z,990.94
2023-04-02T07:48:38.414Z,990.90
2023-04-02T07:49:38.425Z,990.93
2023-04-02T07:50:38.413Z,990.92
2023-04-02T07:51:38.396Z,990.94
2023-04-02T07:52:40.347Z,990.95
2023-04-02T07:53:39.386Z,991.00
2023-04-02T07:54:38.395Z,991.05
2023-04-02T07:55:38.368Z,991.10
2023-04-02T07:56:38.365Z,991.14
2023-04-02T07:57:38.321Z,991.14
2023-04-02T07:58:39.318Z,991.17
2023-04-02T07:59:38.333Z,991.19
2023-04-02T08:00:38.302Z,991.29
2023-04-02T08:01:38.297Z,991.22
2023-04-02T08:02:38.320Z,991.27
2023-04-02T08:03:38.357Z,991.33
2023-04-02T08:04:38.520Z,991.40
2023-04-02T08:05:38.299Z,991.45
2023-04-02T08:06:38.243Z,991.43
2023-04-02T08:07:38.240Z,991.45
2023-04-02T08:08:38.209Z,991.49
2023-04-02T08:09:38.214Z,991.49
2023-04-02T08:10:38.181Z,991.55
2023-04-02T08:11:38.168Z,991.56
2023-04-02T08:12:38.186Z,991.55
2023-04-02T08:13:38.179Z,991.64
2023-04-02T08:14:38.162Z,991.59
2023-04-02T08:15:38.265Z,991.67
2023-04-02T08:16:38.219Z,991.72
2023-04-02T08:17:38.163Z,991.72
2023-04-02T08:18:38.125Z,991.67
2023-04-02T08:19:48.024Z,991.60
2023-04-02T08:20:40.090Z,991.75
2023-04-02T08:21:38.087Z,991.68
2023-04-02T08:22:38.095Z,991.69
2023-04-02T08:23:38.073Z,991.69
2023-04-02T08:24:39.016Z,991.67
2023-04-02T08:25:38.041Z,991.84
2023-04-02T08:26:38.002Z,991.76
2023-04-02T08:27:38.022Z,991.81
2023-04-02T08:28:38.038Z,991.70
2023-04-02T08:29:38.003Z,991.89
2023-04-02T08:30:37.977Z,991.74
2023-04-02T08:31:37.967Z,991.83
2023-04-02T08:32:38.122Z,991.82
2023-04-02T08:33:37.930Z,991.82
2023-04-02T08:34:37.969Z,991.93
2023-04-02T08:35:38.131Z,992.00
2023-04-02T08:36:37.926Z,992.00
2023-04-02T08:37:37.914Z,991.92
2023-04-02T08:38:37.912Z,992.04
2023-04-02T08:39:37.893Z,992.04
2023-04-02T08:40:37.862Z,992.00
2023-04-02T08:41:37.885Z,992.05
2023-04-02T08:42:37.846Z,991.98
2023-04-02T08:43:37.864Z,992.09
2023-04-02T08:44:37.870Z,992.19
2023-04-02T08:45:37.824Z,992.10
2023-04-02T08:46:37.863Z,992.20
2023-04-02T08:47:37.810Z,992.22
2023-04-02T08:48:37.809Z,992.20
2023-04-02T08:49:37.817Z,992.21
2023-04-02T08:50:37.798Z,992.23
2023-04-02T08:51:37.777Z,992.21
2023-04-02T08:52:37.783Z,992.28
2023-04-02T08:53:37.742Z,992.26
2023-04-02T08:54:37.726Z,992.29
2023-04-02T08:55:37.874Z,992.29
2023-04-02T08:56:37.716Z,992.35
2023-04-02T08:57:37.673Z,992.39
2023-04-02T08:58:37.701Z,992.38
2023-04-02T08:59:37.688Z,992.38
2023-04-02T09:00:38.023Z,992.46
2023-04-02T09:01:38.705Z,992.42
2023-04-02T09:02:37.697Z,992.48
2023-04-02T09:03:37.636Z,992.51
2023-04-02T09:04:37.639Z,992.54
2023-04-02T09:05:38.054Z,992.63
2023-04-02T09:06:37.611Z,992.64
2023-04-02T09:07:37.597Z,992.61
2023-04-02T09:08:37.619Z,992.66
2023-04-02T09:09:37.562Z,992.68
2023-04-02T09:10:37.554Z,992.63
2023-04-02T09:11:37.556Z,992.77
2023-04-02T09:12:37.553Z,992.77
2023-04-02T09:13:37.546Z,992.85
2023-04-02T09:14:37.530Z,992.82
2023-04-02T09:15:37.810Z,992.86
2023-04-02T09:16:37.479Z,992.79
2023-04-02T09:17:50.524Z,992.87
2023-04-02T09:18:39.575Z,992.87
2023-04-02T09:19:37.482Z,992.89
2023-04-02T09:20:37.443Z,992.93
2023-04-02T09:21:37.458Z,992.97
2023-04-02T09:22:37.445Z,992.85
2023-04-02T09:23:37.431Z,992.85
2023-04-02T09:24:37.392Z,992.92
2023-04-02T09:25:37.523Z,992.92
2023-04-02T09:26:37.398Z,993.03
2023-04-02T09:27:37.383Z,992.98
2023-04-02T09:28:37.353Z,992.99
2023-04-02T09:29:37.381Z,993.06
2023-04-02T09:30:37.333Z,993.06
2023-04-02T09:32:09.269Z,993.08
2023-04-02T09:32:37.397Z,993.07
2023-04-02T09:33:37.305Z,993.07
2023-04-02T09:34:37.312Z,993.06
2023-04-02T09:35:37.450Z,993.17
2023-04-02T09:36:37.307Z,993.11
2023-04-02T09:37:37.278Z,993.11
2023-04-02T09:38:37.257Z,993.12
2023-04-02T09:39:37.249Z,993.08
2023-04-02T09:40:37.251Z,993.17
2023-04-02T09:41:37.362Z,993.15
2023-04-02T09:42:37.213Z,993.20
2023-04-02T09:43:37.198Z,993.25
2023-04-02T09:44:37.233Z,993.25
2023-04-02T09:45:37.288Z,993.30
2023-04-02T09:46:37.241Z,993.27
2023-04-02T09:47:37.307Z,993.31
2023-04-02T09:48:38.201Z,993.24
2023-04-02T09:49:37.156Z,993.29
2023-04-02T09:50:37.139Z,993.23
2023-04-02T09:51:37.130Z,993.30
2023-04-02T09:52:37.103Z,993.35
2023-04-02T09:53:37.119Z,993.31
2023-04-02T09:54:37.090Z,993.24
2023-04-02T09:55:37.296Z,993.32
2023-04-02T09:56:37.085Z,993.32
2023-04-02T09:57:37.045Z,993.37
2023-04-02T09:58:38.059Z,993.38
2023-04-02T09:59:37.056Z,993.39
2023-04-02T10:00:37.020Z,993.47
2023-04-02T10:01:37.164Z,993.41
2023-04-02T10:02:37.089Z,993.43
2023-04-02T10:03:36.998Z,993.48
2023-04-02T10:04:37.022Z,993.47
2023-04-02T10:05:40.948Z,993.49
2023-04-02T10:06:38.043Z,993.48
2023-04-02T10:07:36.955Z,993.59
2023-04-02T10:08:36.954Z,993.55
2023-04-02T10:09:36.970Z,993.51
2023-04-02T10:10:37.057Z,993.53
2023-04-02T10:12:37.906Z,993.63
2023-04-02T10:13:36.891Z,993.60
2023-04-02T10:14:36.884Z,993.65
2023-04-02T10:15:37.085Z,993.70
2023-04-02T10:16:36.903Z,993.73
2023-04-02T10:17:36.880Z,993.73
2023-04-02T10:18:36.845Z,993.75
2023-04-02T10:19:36.833Z,993.75
2023-04-02T10:20:48.684Z,993.73
2023-04-02T10:21:37.810Z,993.73
2023-04-02T10:22:36.805Z,993.72
2023-04-02T10:23:36.771Z,993.76
2023-04-02T10:24:36.795Z,993.78
2023-04-02T10:25:36.980Z,993.71
2023-04-02T10:26:36.769Z,993.86
2023-04-02T10:27:36.740Z,993.86
2023-04-02T10:28:36.734Z,993.80
2023-04-02T10:29:36.725Z,993.84
2023-04-02T10:30:36.732Z,993.83
2023-04-02T10:31:36.708Z,993.81
2023-04-02T10:32:36.738Z,993.85
2023-04-02T10:33:36.673Z,993.85
2023-04-02T10:34:36.684Z,993.90
2023-04-02T10:35:36.808Z,993.88
2023-04-02T10:36:36.656Z,993.90
2023-04-02T10:37:36.661Z,993.93
2023-04-02T10:38:36.651Z,993.93
2023-04-02T10:39:36.618Z,993.96
2023-04-02T10:40:36.616Z,993.95
2023-04-02T10:41:36.609Z,994.00
2023-04-02T10:42:36.590Z,993.92
2023-04-02T10:43:36.587Z,993.94
2023-04-02T10:44:36.572Z,993.99
2023-04-02T10:45:36.882Z,994.02
2023-04-02T10:46:36.643Z,993.99
2023-04-02T10:47:36.579Z,993.94
2023-04-02T10:48:36.562Z,994.00
2023-04-02T10:49:36.609Z,993.99
2023-04-02T10:50:36.541Z,994.01
2023-04-02T10:51:36.517Z,994.01
2023-04-02T10:52:36.517Z,994.02
2023-04-02T10:53:36.532Z,994.05
2023-04-02T10:54:36.491Z,994.07
2023-04-02T10:55:36.694Z,994.05
2023-04-02T10:56:47.990Z,994.12
2023-04-02T10:57:38.506Z,994.12
2023-04-02T10:58:36.452Z,994.10
2023-04-02T10:59:36.432Z,994.08
2023-04-02T11:00:36.411Z,994.13
2023-04-02T11:01:36.411Z,994.17
2023-04-02T11:02:37.556Z,994.17
2023-04-02T11:03:36.454Z,994.15
2023-04-02T11:04:36.383Z,994.18
2023-04-02T11:05:36.568Z,994.23
2023-04-02T11:06:36.353Z,994.24
2023-04-02T11:07:36.364Z,994.21
2023-04-02T11:08:36.368Z,994.27
2023-04-02T11:09:36.320Z,994.34
2023-04-02T11:10:36.322Z,994.33
2023-04-02T11:11:36.311Z,994.38
2023-04-02T11:12:41.410Z,994.36
2023-04-02T11:13:37.318Z,994.42
2023-04-02T11:14:36.270Z,994.47
2023-04-02T11:15:36.652Z,994.51
2023-04-02T11:16:40.681Z,994.53
2023-04-02T11:17:38.302Z,994.53
2023-04-02T11:18:36.220Z,994.56
2023-04-02T11:19:36.203Z,994.54
2023-04-02T11:20:36.223Z,994.62
2023-04-02T11:21:42.229Z,994.64
2023-04-02T11:22:38.198Z,994.68
2023-04-02T11:23:36.193Z,994.73
2023-04-02T11:24:36.161Z,994.73
2023-04-02T11:25:36.468Z,994.75
2023-04-02T11:26:36.205Z,994.76
2023-04-02T11:27:36.126Z,994.72
2023-04-02T11:28:36.106Z,994.74
2023-04-02T11:29:36.175Z,994.81
2023-04-02T11:30:36.098Z,994.80
2023-04-02T11:31:36.128Z,994.82
2023-04-02T11:32:36.084Z,994.85
2023-04-02T11:33:38.333Z,994.82
2023-04-02T11:34:37.056Z,994.81
2023-04-02T11:35:36.336Z,994.84
2023-04-02T11:36:36.064Z,994.75
2023-04-02T11:37:36.048Z,994.79
2023-04-02T11:38:36.053Z,994.85
2023-04-02T11:39:36.011Z,994.87
2023-04-02T11:40:36.008Z,994.88
2023-04-02T11:41:35.988Z,994.89
2023-04-02T11:42:36.012Z,994.85
2023-04-02T11:43:36.096Z,994.88
2023-04-02T11:44:35.955Z,994.96
2023-04-02T11:45:46.428Z,994.97
2023-04-02T11:46:37.969Z,994.93
2023-04-02T11:47:35.950Z,994.94
2023-04-02T11:48:35.934Z,994.94
2023-04-02T11:49:35.899Z,994.96
2023-04-02T11:50:35.907Z,994.91
2023-04-02T11:51:35.906Z,995.04
2023-04-02T11:52:35.877Z,994.97
2023-04-02T11:53:35.871Z,994.96
2023-04-02T11:54:35.866Z,995.04
2023-04-02T11:55:36.078Z,995.02
2023-04-02T11:56:35.841Z,994.97
2023-04-02T11:57:35.983Z,995.02
2023-04-02T11:58:35.818Z,994.98
2023-04-02T11:59:35.798Z,995.06
2023-04-02T12:00:35.966Z,995.12
2023-04-02T12:01:35.787Z,995.10
2023-04-02T12:02:35.874Z,995.15
2023-04-02T12:03:35.745Z,995.15
2023-04-02T12:04:35.758Z,995.17
2023-04-02T12:05:35.893Z,995.18
2023-04-02T12:06:35.725Z,995.25
2023-04-02T12:07:35.724Z,995.25
2023-04-02T12:08:44.289Z,995.32
2023-04-02T12:09:36.689Z,995.26
2023-04-02T12:10:35.692Z,995.34
2023-04-02T12:11:35.676Z,995.32
2023-04-02T12:12:35.655Z,995.37
2023-04-02T12:13:35.670Z,995.39
2023-04-02T12:14:35.680Z,995.41
2023-04-02T12:15:35.774Z,995.42
2023-04-02T12:16:35.665Z,995.36
2023-04-02T12:17:35.623Z,995.37
2023-04-02T12:18:35.600Z,995.44
2023-04-02T12:19:35.604Z,995.38
2023-04-02T12:20:35.785Z,995.49
2023-04-02T12:21:35.584Z,995.36
2023-04-02T12:22:35.573Z,995.37
2023-04-02T12:23:35.562Z,995.37
2023-04-02T12:24:35.572Z,995.43
2023-04-02T12:25:35.536Z,995.43
2023-04-02T12:26:35.539Z,995.40
2023-04-02T12:27:35.533Z,995.52
2023-04-02T12:28:35.516Z,995.43
2023-04-02T12:29:35.480Z,995.44
2023-04-02T12:30:35.648Z,995.43